createdAt,value
2017-12-05T00:04:49.253Z,15.77
2017-12-05T00:09:50.044Z,18.00
2017-12-05T00:14:50.820Z,19.90
2017-12-05T00:19:51.609Z,13.83
2017-12-05T00:24:52.357Z,14.13
2017-12-05T00:29:53.133Z,17.83
2017-12-05T00:34:53.906Z,20.00
2017-12-05T00:39:54.686Z,15.80
2017-12-05T00:44:55.458Z,13.73
2017-12-05T00:49:56.220Z,17.40
2017-12-05T00:54:56.998Z,16.27
2017-12-05T00:59:57.780Z,16.97
2017-12-05T01:04:58.553Z,16.33
2017-12-05T01:09:59.329Z,16.70
2017-12-05T01:15:00.097Z,15.80
2017-12-05T01:20:00.887Z,16.77
2017-12-05T01:25:01.657Z,16.97
2017-12-05T01:30:02.428Z,15.50
2017-12-05T01:35:03.219Z,15.53
2017-12-05T01:40:03.993Z,19.37
2017-12-05T01:45:04.776Z,16.13
2017-12-05T01:50:05.554Z,16.87
2017-12-05T01:55:06.318Z,18.47
2017-12-05T02:00:07.100Z,13.77
2017-12-05T02:05:07.907Z,16.90
2017-12-05T02:10:08.680Z,17.27
2017-12-05T02:15:09.452Z,19.63
2017-12-05T02:20:10.245Z,16.83
2017-12-05T02:25:17.873Z,16.90
2017-12-05T02:30:18.663Z,19.90
2017-12-05T02:35:19.457Z,15.47
2017-12-05T02:40:20.254Z,16.17
2017-12-05T02:45:21.030Z,14.20
2017-12-05T02:50:21.818Z,14.30
2017-12-05T02:55:22.616Z,18.33
2017-12-05T03:00:23.430Z,13.33
2017-12-05T03:05:24.213Z,16.30
2017-12-05T03:10:25.036Z,15.60
2017-12-05T03:15:25.827Z,18.53
2017-12-05T03:20:26.614Z,13.60
2017-12-05T03:25:27.385Z,13.93
2017-12-05T03:30:28.160Z,15.57
2017-12-05T03:35:28.933Z,15.80
2017-12-05T03:40:29.719Z,16.37
2017-12-05T03:45:30.488Z,16.63
2017-12-05T03:50:31.294Z,15.93
2017-12-05T03:55:32.069Z,16.33
2017-12-05T04:00:32.849Z,17.97
2017-12-05T04:05:33.654Z,23.20
2017-12-05T04:10:34.421Z,20.37
2017-12-05T04:15:35.207Z,16.60
2017-12-05T04:20:36.005Z,16.63
2017-12-05T04:25:36.797Z,21.03
2017-12-05T04:35:45.192Z,18.40
2017-12-05T04:40:45.972Z,18.17
2017-12-05T04:45:46.751Z,18.93
2017-12-05T04:50:47.524Z,24.77
2017-12-05T04:55:48.317Z,22.50
2017-12-05T05:00:49.177Z,20.20
2017-12-05T05:05:49.986Z,16.10
2017-12-05T05:10:50.889Z,21.87
2017-12-05T05:15:51.678Z,19.57
2017-12-05T05:20:52.478Z,16.80
2017-12-05T05:25:53.285Z,17.80
2017-12-05T05:30:54.089Z,15.47
2017-12-05T05:35:54.837Z,15.53
2017-12-05T05:40:55.628Z,17.80
2017-12-05T05:45:56.401Z,16.57
2017-12-05T05:50:57.165Z,15.73
2017-12-05T05:55:57.941Z,15.77
2017-12-05T06:00:58.709Z,14.00
2017-12-05T06:05:59.493Z,14.10
2017-12-05T06:11:00.261Z,14.80
2017-12-05T06:16:02.045Z,16.03
2017-12-05T06:21:02.822Z,12.57
2017-12-05T06:26:03.610Z,12.90
2017-12-05T06:31:04.389Z,10.70
2017-12-05T06:36:05.169Z,13.20
2017-12-05T06:41:05.938Z,11.40
2017-12-05T06:46:06.738Z,11.17
2017-12-05T06:51:07.526Z,11.20
2017-12-05T06:56:08.321Z,10.67
2017-12-05T07:01:09.169Z,12.40
2017-12-05T07:06:09.955Z,11.30
2017-12-05T07:11:10.745Z,10.47
2017-12-05T07:16:11.531Z,9.90
2017-12-05T07:21:12.332Z,13.97
2017-12-05T07:26:13.150Z,10.30
2017-12-05T07:31:13.934Z,8.60
2017-12-05T07:36:14.733Z,9.17
2017-12-05T07:41:15.520Z,9.80
2017-12-05T07:46:16.289Z,11.23
2017-12-05T07:51:17.077Z,7.87
2017-12-05T07:56:17.884Z,8.30
2017-12-05T08:01:18.681Z,10.30
2017-12-05T08:06:19.472Z,8.80
2017-12-05T08:11:20.255Z,10.03
2017-12-05T08:16:21.065Z,9.20
2017-12-05T08:21:21.886Z,9.33
2017-12-05T08:26:26.038Z,9.13
2017-12-05T08:31:30.358Z,12.03
2017-12-05T08:36:41.221Z,12.93
2017-12-05T08:41:48.986Z,9.97
2017-12-05T08:47:00.344Z,14.03
2017-12-05T08:52:01.170Z,10.37
2017-12-05T08:57:02.951Z,13.30
2017-12-05T09:02:06.989Z,12.30
2017-12-05T09:07:07.800Z,10.67
2017-12-05T09:12:09.566Z,11.67
2017-12-05T09:17:21.355Z,12.20
2017-12-05T09:22:30.490Z,12.87
2017-12-05T09:27:33.266Z,14.10
2017-12-05T09:32:40.154Z,13.93
2017-12-05T09:37:40.940Z,12.77
2017-12-05T09:42:46.373Z,13.17
2017-12-05T09:47:47.181Z,14.00
2017-12-05T09:52:47.969Z,12.57
2017-12-05T09:58:10.566Z,11.40
2017-12-05T10:03:14.950Z,14.40
2017-12-05T10:13:41.472Z,13.50
2017-12-05T10:29:48.517Z,16.20
2017-12-05T10:34:49.318Z,15.60
2017-12-05T10:39:50.118Z,16.37
2017-12-05T10:44:54.263Z,17.50
2017-12-05T10:50:02.014Z,14.33
2017-12-05T10:55:17.078Z,15.57
2017-12-05T11:00:17.877Z,14.00
2017-12-05T11:05:18.862Z,12.57
2017-12-05T11:10:19.653Z,15.47
2017-12-05T11:15:28.372Z,18.20
2017-12-05T11:20:29.192Z,14.53
2017-12-05T11:25:30.032Z,17.27
2017-12-05T11:30:30.845Z,14.33
2017-12-05T11:35:31.649Z,13.50
2017-12-05T11:40:32.433Z,14.67
2017-12-05T11:45:40.135Z,16.80
2017-12-05T11:50:40.962Z,14.90
2017-12-05T11:55:41.774Z,14.27
2017-12-05T12:00:42.657Z,13.03
2017-12-05T12:05:43.487Z,12.50
2017-12-05T12:10:44.262Z,10.53
2017-12-05T12:15:58.058Z,10.37
2017-12-05T12:20:58.846Z,11.30
2017-12-05T12:25:59.613Z,12.40
2017-12-05T12:31:00.390Z,14.43
2017-12-05T12:36:01.155Z,16.47
2017-12-05T12:41:01.933Z,12.30
2017-12-05T12:46:02.705Z,11.77
2017-12-05T12:51:03.504Z,12.47
2017-12-05T12:56:04.291Z,19.53
2017-12-05T13:01:05.081Z,10.27
2017-12-05T13:06:05.868Z,11.00
2017-12-05T13:11:06.675Z,9.73
2017-12-05T13:16:07.462Z,26.47
2017-12-05T13:21:08.254Z,11.40
2017-12-05T13:26:09.039Z,10.70
2017-12-05T13:31:09.822Z,10.53
2017-12-05T13:36:10.645Z,8.60
2017-12-05T13:41:11.593Z,9.87
2017-12-05T13:46:12.381Z,6.97
2017-12-05T13:51:13.164Z,8.47
2017-12-05T13:56:13.942Z,8.43
2017-12-05T14:01:18.411Z,7.63
2017-12-05T14:06:26.428Z,7.10
2017-12-05T14:11:30.286Z,9.33
2017-12-05T14:16:53.486Z,7.30
2017-12-05T14:21:58.110Z,14.70
2017-12-05T14:26:58.907Z,8.70
2017-12-05T14:32:07.336Z,9.30
2017-12-05T14:37:08.150Z,9.07
2017-12-05T14:42:08.951Z,10.10
2017-12-05T14:47:09.717Z,8.27
2017-12-05T14:57:39.543Z,12.40
2017-12-05T15:02:50.352Z,9.40
2017-12-05T15:07:51.146Z,9.67
2017-12-05T15:13:09.106Z,9.23
2017-12-05T15:18:13.728Z,11.53
2017-12-05T15:23:15.547Z,12.57
2017-12-05T15:28:26.370Z,14.83
2017-12-05T15:33:30.665Z,12.40
2017-12-05T15:38:31.490Z,9.00
2017-12-05T15:43:32.266Z,9.07
2017-12-05T15:48:33.054Z,11.50
2017-12-05T15:53:33.827Z,11.10
2017-12-05T15:58:34.610Z,11.10
2017-12-05T16:03:35.405Z,11.90
2017-12-05T16:08:36.207Z,10.93
2017-12-05T16:13:37.011Z,12.43
2017-12-05T16:18:37.790Z,12.70
2017-12-05T16:23:38.589Z,16.83
2017-12-05T16:28:39.373Z,11.87
2017-12-05T16:33:40.149Z,14.13
2017-12-05T16:38:51.197Z,16.73
2017-12-05T16:43:52.007Z,15.90
2017-12-05T16:48:56.336Z,14.00
2017-12-05T16:54:04.245Z,15.80
2017-12-05T17:04:39.594Z,14.47
2017-12-05T17:09:57.455Z,16.10
2017-12-05T17:15:06.697Z,20.90
2017-12-05T17:20:07.501Z,12.77
2017-12-05T17:25:08.315Z,14.40
2017-12-05T17:30:09.130Z,12.33
2017-12-05T17:35:09.938Z,16.03
2017-12-05T17:40:10.730Z,16.17
2017-12-05T17:45:11.524Z,13.27
2017-12-05T17:50:12.276Z,13.87
2017-12-05T17:55:13.042Z,13.53
2017-12-05T18:00:15.828Z,14.60
2017-12-05T18:05:16.702Z,14.10
2017-12-05T18:10:17.474Z,17.80
2017-12-05T18:15:24.374Z,13.73
2017-12-05T18:20:25.150Z,14.27
2017-12-05T18:25:25.921Z,12.43
2017-12-05T18:30:26.711Z,13.27
2017-12-05T18:35:30.805Z,12.40
2017-12-05T18:40:31.604Z,12.80
2017-12-05T18:45:32.366Z,14.03
2017-12-05T18:50:33.149Z,13.23
2017-12-05T18:55:37.537Z,12.47
2017-12-05T19:00:38.331Z,15.53
2017-12-05T19:05:39.786Z,12.10
2017-12-05T19:10:40.773Z,15.90
2017-12-05T19:15:41.554Z,14.00
2017-12-05T19:20:42.330Z,13.80
2017-12-05T19:25:43.141Z,15.73
2017-12-05T19:30:43.956Z,14.00
2017-12-05T19:35:44.737Z,13.10
2017-12-05T19:40:45.539Z,12.90
2017-12-05T19:45:46.322Z,12.90
2017-12-05T19:50:47.113Z,14.43
2017-12-05T19:55:47.929Z,13.83
2017-12-05T20:00:48.751Z,11.50
2017-12-05T20:05:49.538Z,14.00
2017-12-05T20:10:50.333Z,13.93
2017-12-05T20:15:51.130Z,15.90
2017-12-05T20:20:51.946Z,14.67
2017-12-05T20:25:52.755Z,11.67
2017-12-05T20:30:53.587Z,15.67
2017-12-05T20:35:54.385Z,14.23
2017-12-05T20:40:55.186Z,14.43
2017-12-05T20:45:55.987Z,16.50
2017-12-05T20:50:56.792Z,11.73
2017-12-05T20:55:57.568Z,13.97
2017-12-05T21:00:58.361Z,15.97
2017-12-05T21:05:59.142Z,13.40
2017-12-05T21:10:59.966Z,13.13
2017-12-05T21:16:01.786Z,13.63
2017-12-05T21:21:02.592Z,11.53
2017-12-05T21:26:03.378Z,14.20
2017-12-05T21:31:04.180Z,11.90
2017-12-05T21:36:04.973Z,15.10
2017-12-05T21:41:05.758Z,15.37
2017-12-05T21:46:06.550Z,12.73
2017-12-05T21:51:07.359Z,16.50
2017-12-05T21:56:08.151Z,11.67
2017-12-05T22:01:09.502Z,14.57
2017-12-05T22:06:10.293Z,15.47
2017-12-05T22:11:11.088Z,13.10
2017-12-05T22:16:11.859Z,14.00
2017-12-05T22:21:14.687Z,13.40
2017-12-05T22:26:15.484Z,12.00
2017-12-05T22:31:16.296Z,10.83
2017-12-05T22:36:17.072Z,9.17
2017-12-05T22:41:17.856Z,11.40
2017-12-05T22:46:18.651Z,10.90
2017-12-05T22:51:19.422Z,10.30
2017-12-05T22:56:20.197Z,10.27
2017-12-05T23:01:20.994Z,9.87
2017-12-05T23:06:21.769Z,12.30
2017-12-05T23:11:22.538Z,9.60
2017-12-05T23:16:23.328Z,10.60
2017-12-05T23:21:24.094Z,10.20
2017-12-05T23:26:24.876Z,9.30
2017-12-05T23:31:28.946Z,12.00
2017-12-05T23:36:29.719Z,13.40
2017-12-05T23:41:30.499Z,10.20
2017-12-05T23:46:31.247Z,11.00
2017-12-05T23:51:32.022Z,9.83
2017-12-05T23:56:32.780Z,11.53
